Terminal Aerodrome Forecast
Issued by NWS Duluth, MN

Home | Current Version | Previous Version | Text Only | Print | Product List | Glossary On
Versions: 1 2 3 4 5 6 7 8 9 10 11 12 13 14 15 16 17 18 19 20 21 22 23 24 25 26
136
FTUS43 KDLH 212012 AAC
TAFDLH
TAF AMD
KDLH 212012Z 2120/2218 10010G17KT P6SM SKC
     FM220200 07011KT 4SM BR FEW004 BKN020 WS020/18035KT
     FM220400 07009KT 2SM -SHRA BR VCTS SCT004 OVC020CB
      WS020/21035KT
     FM220900 13004KT 1SM -SHRA BR VCTS OVC008CB
     FM221200 18006KT 1SM BR OVC003
     FM221600 16008KT P6SM BKN015=

USA.gov is the U.S. government's official web portal to all federal, state and local government web resources and services.